Hauptseite
METAR-TAF:

METAR-TAF

Flughäfen :

Harbin, China

Breite: 45-45N, Länge: 126-46E, Höhe: 143 m

Beobachtung

Neuester Wetterbericht von vor 59 Minuten, um 17:00 UTC
Wind 8 kt aus West/Südwest
Temperatur 5°C
Luftfeuchtigkeit 75%
Luftdruck 1014 hPa
Sichtweite 10 km oder mehr
keine Wolken unter 1500 m und keine Kumulonimbus oder Gewitterwolken

METAR: ZYHB 261700Z 25004MPS CAVOK 05/01 Q1014 NOSIG

Zeit: 01:59 (17:59 UTC)

Prognose

Neuester Wetterbericht von vor 2 Stunden und 58 Minuten, um 15:01 UTC
Gültige Prognose vom 26 um 18 UTC bis 27 um 18 UTC
Wind 8 kt aus West
Sichtweite: 6000 m
Aufgelockert bewölkt in der Höhe von 3000 ft

TAF: ZYHB 261501Z 2618/2718 26004MPS 6000 SCT030 TX15/2706Z TN06/2621Z

Wetterbeobachtungen und Prognosen von mehr als 4000 Flughäfen (METAR und TAF Bericht).

Die verfügbaren Stationen werden durch gelbe und rote Markierungen auf der Karte dargestellt.

Führen Sie die Maus auf sie, um den Namen der Station zu sehen.

Darauf klicken, um die Beobachtung von Wetterbeobachtungen und Prognosen zu sehen.

Um die Karte zu ändern : klicken Sie auf den grünen Tasten mit einem schwarzen Kreuz Zum Vergrößern, auf den grünen Button mit einem Gedankenstrich zu verkleinern, oder auf die grünen Pfeile für benachbarte Karten.


METAR-TAF: